<?xml version="1.0" encoding="UTF-8" ?>
		<gpx
		 version="1.0"
		 xmlns:xsi="http://www.w3.org/2001/XMLSchema-instance"
		 xmlns="http://www.topografix.com/GPX/1/0"
		 xsi:schemaLocation="http://www.topografix.com/GPX/1/0 http://www.topografix.com/GPX/1/0/gpx.xsd"
		 creator="http://www.openrunner.com">
			<trk>
				<name>OR-7915855--Bonvicino:Salita dei Campioni - Jacques Anquetil</name>
			    <trkseg>
	
			<trkpt lat="44.512410" lon="7.992970">
			 <ele>385</ele>
			<time>2017-11-10T16:03:06Z</time>
			</trkpt>
		
			<trkpt lat="44.512390" lon="7.992940">
			 <ele>385</ele>
			<time>2017-11-10T16:05:06Z</time>
			</trkpt>
		
			<trkpt lat="44.512310" lon="7.992810">
			 <ele>387</ele>
			<time>2017-11-10T16:07:06Z</time>
			</trkpt>
		
			<trkpt lat="44.512290" lon="7.992750">
			 <ele>387</ele>
			<time>2017-11-10T16:09:06Z</time>
			</trkpt>
		
			<trkpt lat="44.512270" lon="7.992670">
			 <ele>387</ele>
			<time>2017-11-10T16:11:06Z</time>
			</trkpt>
		
			<trkpt lat="44.512250" lon="7.992600">
			 <ele>388</ele>
			<time>2017-11-10T16:13:06Z</time>
			</trkpt>
		
			<trkpt lat="44.512240" lon="7.992510">
			 <ele>387</ele>
			<time>2017-11-10T16:15:06Z</time>
			</trkpt>
		
			<trkpt lat="44.512240" lon="7.992380">
			 <ele>386</ele>
			<time>2017-11-10T16:17:06Z</time>
			</trkpt>
		
			<trkpt lat="44.512230" lon="7.992180">
			 <ele>384</ele>
			<time>2017-11-10T16:19:06Z</time>
			</trkpt>
		
			<trkpt lat="44.512230" lon="7.992100">
			 <ele>383</ele>
			<time>2017-11-10T16:21:06Z</time>
			</trkpt>
		
			<trkpt lat="44.512210" lon="7.992050">
			 <ele>383</ele>
			<time>2017-11-10T16:23:06Z</time>
			</trkpt>
		
			<trkpt lat="44.512200" lon="7.992020">
			 <ele>383</ele>
			<time>2017-11-10T16:25:06Z</time>
			</trkpt>
		
			<trkpt lat="44.512180" lon="7.992010">
			 <ele>383</ele>
			<time>2017-11-10T16:27:06Z</time>
			</trkpt>
		
			<trkpt lat="44.512160" lon="7.992000">
			 <ele>383</ele>
			<time>2017-11-10T16:29:06Z</time>
			</trkpt>
		
			<trkpt lat="44.512140" lon="7.992000">
			 <ele>384</ele>
			<time>2017-11-10T16:31:06Z</time>
			</trkpt>
		
			<trkpt lat="44.512130" lon="7.992000">
			 <ele>384</ele>
			<time>2017-11-10T16:33:06Z</time>
			</trkpt>
		
			<trkpt lat="44.512120" lon="7.992000">
			 <ele>384</ele>
			<time>2017-11-10T16:35:06Z</time>
			</trkpt>
		
			<trkpt lat="44.512110" lon="7.992010">
			 <ele>384</ele>
			<time>2017-11-10T16:37:06Z</time>
			</trkpt>
		
			<trkpt lat="44.512100" lon="7.992030">
			 <ele>385</ele>
			<time>2017-11-10T16:39:06Z</time>
			</trkpt>
		
			<trkpt lat="44.512080" lon="7.992040">
			 <ele>385</ele>
			<time>2017-11-10T16:41:06Z</time>
			</trkpt>
		
			<trkpt lat="44.512070" lon="7.992070">
			 <ele>386</ele>
			<time>2017-11-10T16:43:06Z</time>
			</trkpt>
		
			<trkpt lat="44.512060" lon="7.992110">
			 <ele>386</ele>
			<time>2017-11-10T16:45:06Z</time>
			</trkpt>
		
			<trkpt lat="44.512060" lon="7.992150">
			 <ele>387</ele>
			<time>2017-11-10T16:47:06Z</time>
			</trkpt>
		
			<trkpt lat="44.512060" lon="7.992220">
			 <ele>388</ele>
			<time>2017-11-10T16:49:06Z</time>
			</trkpt>
		
			<trkpt lat="44.512050" lon="7.992310">
			 <ele>389</ele>
			<time>2017-11-10T16:51:06Z</time>
			</trkpt>
		
			<trkpt lat="44.512040" lon="7.992490">
			 <ele>392</ele>
			<time>2017-11-10T16:53:06Z</time>
			</trkpt>
		
			<trkpt lat="44.512040" lon="7.992560">
			 <ele>393</ele>
			<time>2017-11-10T16:55:06Z</time>
			</trkpt>
		
			<trkpt lat="44.512020" lon="7.992630">
			 <ele>394</ele>
			<time>2017-11-10T16:57:06Z</time>
			</trkpt>
		
			<trkpt lat="44.512000" lon="7.992730">
			 <ele>395</ele>
			<time>2017-11-10T16:59:06Z</time>
			</trkpt>
		
			<trkpt lat="44.511950" lon="7.993010">
			 <ele>399</ele>
			<time>2017-11-10T17:01:06Z</time>
			</trkpt>
		
			<trkpt lat="44.511910" lon="7.993240">
			 <ele>402</ele>
			<time>2017-11-10T17:03:06Z</time>
			</trkpt>
		
			<trkpt lat="44.511880" lon="7.993420">
			 <ele>404</ele>
			<time>2017-11-10T17:05:06Z</time>
			</trkpt>
		
			<trkpt lat="44.511870" lon="7.993470">
			 <ele>404</ele>
			<time>2017-11-10T17:07:06Z</time>
			</trkpt>
		
			<trkpt lat="44.511870" lon="7.993510">
			 <ele>404</ele>
			<time>2017-11-10T17:09:06Z</time>
			</trkpt>
		
			<trkpt lat="44.511860" lon="7.993600">
			 <ele>404</ele>
			<time>2017-11-10T17:11:06Z</time>
			</trkpt>
		
			<trkpt lat="44.511860" lon="7.993710">
			 <ele>404</ele>
			<time>2017-11-10T17:13:06Z</time>
			</trkpt>
		
			<trkpt lat="44.511840" lon="7.993850">
			 <ele>405</ele>
			<time>2017-11-10T17:15:06Z</time>
			</trkpt>
		
			<trkpt lat="44.511830" lon="7.993880">
			 <ele>405</ele>
			<time>2017-11-10T17:17:06Z</time>
			</trkpt>
		
			<trkpt lat="44.511820" lon="7.993910">
			 <ele>406</ele>
			<time>2017-11-10T17:19:06Z</time>
			</trkpt>
		
			<trkpt lat="44.511810" lon="7.993920">
			 <ele>406</ele>
			<time>2017-11-10T17:21:06Z</time>
			</trkpt>
		
			<trkpt lat="44.511790" lon="7.993930">
			 <ele>407</ele>
			<time>2017-11-10T17:23:06Z</time>
			</trkpt>
		
			<trkpt lat="44.511770" lon="7.993930">
			 <ele>407</ele>
			<time>2017-11-10T17:25:06Z</time>
			</trkpt>
		
			<trkpt lat="44.511760" lon="7.993940">
			 <ele>407</ele>
			<time>2017-11-10T17:27:06Z</time>
			</trkpt>
		
			<trkpt lat="44.511750" lon="7.993930">
			 <ele>408</ele>
			<time>2017-11-10T17:29:06Z</time>
			</trkpt>
		
			<trkpt lat="44.511730" lon="7.993920">
			 <ele>408</ele>
			<time>2017-11-10T17:31:06Z</time>
			</trkpt>
		
			<trkpt lat="44.511720" lon="7.993910">
			 <ele>409</ele>
			<time>2017-11-10T17:33:06Z</time>
			</trkpt>
		
			<trkpt lat="44.511710" lon="7.993900">
			 <ele>409</ele>
			<time>2017-11-10T17:35:06Z</time>
			</trkpt>
		
			<trkpt lat="44.511700" lon="7.993870">
			 <ele>409</ele>
			<time>2017-11-10T17:37:06Z</time>
			</trkpt>
		
			<trkpt lat="44.511690" lon="7.993830">
			 <ele>410</ele>
			<time>2017-11-10T17:39:06Z</time>
			</trkpt>
		
			<trkpt lat="44.511690" lon="7.993810">
			 <ele>410</ele>
			<time>2017-11-10T17:41:06Z</time>
			</trkpt>
		
			<trkpt lat="44.511690" lon="7.993760">
			 <ele>410</ele>
			<time>2017-11-10T17:43:06Z</time>
			</trkpt>
		
			<trkpt lat="44.511690" lon="7.993710">
			 <ele>410</ele>
			<time>2017-11-10T17:45:06Z</time>
			</trkpt>
		
			<trkpt lat="44.511710" lon="7.993620">
			 <ele>409</ele>
			<time>2017-11-10T17:47:06Z</time>
			</trkpt>
		
			<trkpt lat="44.511720" lon="7.993540">
			 <ele>409</ele>
			<time>2017-11-10T17:49:06Z</time>
			</trkpt>
		
			<trkpt lat="44.511720" lon="7.993490">
			 <ele>409</ele>
			<time>2017-11-10T17:51:06Z</time>
			</trkpt>
		
			<trkpt lat="44.511710" lon="7.993320">
			 <ele>409</ele>
			<time>2017-11-10T17:53:06Z</time>
			</trkpt>
		
			<trkpt lat="44.511690" lon="7.993040">
			 <ele>407</ele>
			<time>2017-11-10T17:55:06Z</time>
			</trkpt>
		
			<trkpt lat="44.511690" lon="7.992880">
			 <ele>405</ele>
			<time>2017-11-10T17:57:06Z</time>
			</trkpt>
		
			<trkpt lat="44.511690" lon="7.992830">
			 <ele>404</ele>
			<time>2017-11-10T17:59:06Z</time>
			</trkpt>
		
			<trkpt lat="44.511680" lon="7.992760">
			 <ele>404</ele>
			<time>2017-11-10T18:01:06Z</time>
			</trkpt>
		
			<trkpt lat="44.511660" lon="7.992720">
			 <ele>404</ele>
			<time>2017-11-10T18:03:06Z</time>
			</trkpt>
		
			<trkpt lat="44.511650" lon="7.992700">
			 <ele>404</ele>
			<time>2017-11-10T18:05:06Z</time>
			</trkpt>
		
			<trkpt lat="44.511640" lon="7.992690">
			 <ele>404</ele>
			<time>2017-11-10T18:07:06Z</time>
			</trkpt>
		
			<trkpt lat="44.511620" lon="7.992680">
			 <ele>404</ele>
			<time>2017-11-10T18:09:06Z</time>
			</trkpt>
		
			<trkpt lat="44.511600" lon="7.992680">
			 <ele>404</ele>
			<time>2017-11-10T18:11:06Z</time>
			</trkpt>
		
			<trkpt lat="44.511580" lon="7.992690">
			 <ele>404</ele>
			<time>2017-11-10T18:13:06Z</time>
			</trkpt>
		
			<trkpt lat="44.511560" lon="7.992700">
			 <ele>404</ele>
			<time>2017-11-10T18:15:06Z</time>
			</trkpt>
		
			<trkpt lat="44.511550" lon="7.992720">
			 <ele>405</ele>
			<time>2017-11-10T18:17:06Z</time>
			</trkpt>
		
			<trkpt lat="44.511540" lon="7.992750">
			 <ele>405</ele>
			<time>2017-11-10T18:19:06Z</time>
			</trkpt>
		
			<trkpt lat="44.511530" lon="7.992780">
			 <ele>406</ele>
			<time>2017-11-10T18:21:06Z</time>
			</trkpt>
		
			<trkpt lat="44.511530" lon="7.992820">
			 <ele>407</ele>
			<time>2017-11-10T18:23:06Z</time>
			</trkpt>
		
			<trkpt lat="44.511540" lon="7.992860">
			 <ele>407</ele>
			<time>2017-11-10T18:25:06Z</time>
			</trkpt>
		
			<trkpt lat="44.511550" lon="7.992930">
			 <ele>408</ele>
			<time>2017-11-10T18:27:06Z</time>
			</trkpt>
		
			<trkpt lat="44.511560" lon="7.992980">
			 <ele>409</ele>
			<time>2017-11-10T18:29:06Z</time>
			</trkpt>
		
			<trkpt lat="44.511570" lon="7.993040">
			 <ele>409</ele>
			<time>2017-11-10T18:31:06Z</time>
			</trkpt>
		
			<trkpt lat="44.511570" lon="7.993120">
			 <ele>411</ele>
			<time>2017-11-10T18:33:06Z</time>
			</trkpt>
		
			<trkpt lat="44.511570" lon="7.993180">
			 <ele>411</ele>
			<time>2017-11-10T18:35:06Z</time>
			</trkpt>
		
			<trkpt lat="44.511560" lon="7.993270">
			 <ele>413</ele>
			<time>2017-11-10T18:37:06Z</time>
			</trkpt>
		
			<trkpt lat="44.511550" lon="7.993410">
			 <ele>414</ele>
			<time>2017-11-10T18:39:06Z</time>
			</trkpt>
		
			<trkpt lat="44.511520" lon="7.993630">
			 <ele>416</ele>
			<time>2017-11-10T18:41:06Z</time>
			</trkpt>
		
			<trkpt lat="44.511500" lon="7.993880">
			 <ele>417</ele>
			<time>2017-11-10T18:43:06Z</time>
			</trkpt>
		
			<trkpt lat="44.511500" lon="7.994020">
			 <ele>417</ele>
			<time>2017-11-10T18:45:06Z</time>
			</trkpt>
		
			<trkpt lat="44.511500" lon="7.994090">
			 <ele>417</ele>
			<time>2017-11-10T18:47:06Z</time>
			</trkpt>
		
			<trkpt lat="44.511490" lon="7.994120">
			 <ele>418</ele>
			<time>2017-11-10T18:49:06Z</time>
			</trkpt>
		
			<trkpt lat="44.511480" lon="7.994150">
			 <ele>418</ele>
			<time>2017-11-10T18:51:06Z</time>
			</trkpt>
		
			<trkpt lat="44.511470" lon="7.994160">
			 <ele>419</ele>
			<time>2017-11-10T18:53:06Z</time>
			</trkpt>
		
			<trkpt lat="44.511460" lon="7.994170">
			 <ele>419</ele>
			<time>2017-11-10T18:55:06Z</time>
			</trkpt>
		
			<trkpt lat="44.511440" lon="7.994180">
			 <ele>420</ele>
			<time>2017-11-10T18:57:06Z</time>
			</trkpt>
		
			<trkpt lat="44.511430" lon="7.994180">
			 <ele>421</ele>
			<time>2017-11-10T18:59:06Z</time>
			</trkpt>
		
			<trkpt lat="44.511410" lon="7.994180">
			 <ele>422</ele>
			<time>2017-11-10T19:01:06Z</time>
			</trkpt>
		
			<trkpt lat="44.511400" lon="7.994180">
			 <ele>422</ele>
			<time>2017-11-10T19:03:06Z</time>
			</trkpt>
		
			<trkpt lat="44.511390" lon="7.994180">
			 <ele>423</ele>
			<time>2017-11-10T19:05:06Z</time>
			</trkpt>
		
			<trkpt lat="44.511380" lon="7.994170">
			 <ele>423</ele>
			<time>2017-11-10T19:07:06Z</time>
			</trkpt>
		
			<trkpt lat="44.511370" lon="7.994170">
			 <ele>424</ele>
			<time>2017-11-10T19:09:06Z</time>
			</trkpt>
		
			<trkpt lat="44.511360" lon="7.994160">
			 <ele>424</ele>
			<time>2017-11-10T19:11:06Z</time>
			</trkpt>
		
			<trkpt lat="44.511360" lon="7.994140">
			 <ele>424</ele>
			<time>2017-11-10T19:13:06Z</time>
			</trkpt>
		
			<trkpt lat="44.511350" lon="7.994130">
			 <ele>424</ele>
			<time>2017-11-10T19:15:06Z</time>
			</trkpt>
		
			<trkpt lat="44.511340" lon="7.994110">
			 <ele>425</ele>
			<time>2017-11-10T19:17:06Z</time>
			</trkpt>
		
			<trkpt lat="44.511340" lon="7.994090">
			 <ele>424</ele>
			<time>2017-11-10T19:19:06Z</time>
			</trkpt>
		
			<trkpt lat="44.511340" lon="7.994050">
			 <ele>424</ele>
			<time>2017-11-10T19:21:06Z</time>
			</trkpt>
		
			<trkpt lat="44.511340" lon="7.994010">
			 <ele>424</ele>
			<time>2017-11-10T19:23:06Z</time>
			</trkpt>
		
			<trkpt lat="44.511350" lon="7.993910">
			 <ele>423</ele>
			<time>2017-11-10T19:25:06Z</time>
			</trkpt>
		
			<trkpt lat="44.511360" lon="7.993830">
			 <ele>422</ele>
			<time>2017-11-10T19:27:06Z</time>
			</trkpt>
		
			<trkpt lat="44.511360" lon="7.993760">
			 <ele>422</ele>
			<time>2017-11-10T19:29:06Z</time>
			</trkpt>
		
			<trkpt lat="44.511360" lon="7.993690">
			 <ele>421</ele>
			<time>2017-11-10T19:31:06Z</time>
			</trkpt>
		
			<trkpt lat="44.511350" lon="7.993630">
			 <ele>421</ele>
			<time>2017-11-10T19:33:06Z</time>
			</trkpt>
		
			<trkpt lat="44.511340" lon="7.993560">
			 <ele>421</ele>
			<time>2017-11-10T19:35:06Z</time>
			</trkpt>
		
			<trkpt lat="44.511320" lon="7.993470">
			 <ele>421</ele>
			<time>2017-11-10T19:37:06Z</time>
			</trkpt>
		
			<trkpt lat="44.511300" lon="7.993400">
			 <ele>422</ele>
			<time>2017-11-10T19:39:06Z</time>
			</trkpt>
		
			<trkpt lat="44.511270" lon="7.993330">
			 <ele>422</ele>
			<time>2017-11-10T19:41:06Z</time>
			</trkpt>
		
			<trkpt lat="44.511240" lon="7.993270">
			 <ele>421</ele>
			<time>2017-11-10T19:43:06Z</time>
			</trkpt>
		
			<trkpt lat="44.511200" lon="7.993240">
			 <ele>422</ele>
			<time>2017-11-10T19:45:06Z</time>
			</trkpt>
		
			<trkpt lat="44.511170" lon="7.993210">
			 <ele>422</ele>
			<time>2017-11-10T19:47:06Z</time>
			</trkpt>
		
			<trkpt lat="44.511130" lon="7.993190">
			 <ele>422</ele>
			<time>2017-11-10T19:49:06Z</time>
			</trkpt>
		
			<trkpt lat="44.511090" lon="7.993190">
			 <ele>423</ele>
			<time>2017-11-10T19:51:06Z</time>
			</trkpt>
		
			<trkpt lat="44.511050" lon="7.993180">
			 <ele>424</ele>
			<time>2017-11-10T19:53:06Z</time>
			</trkpt>
		
			<trkpt lat="44.510990" lon="7.993190">
			 <ele>425</ele>
			<time>2017-11-10T19:55:06Z</time>
			</trkpt>
		
			<trkpt lat="44.510810" lon="7.993190">
			 <ele>429</ele>
			<time>2017-11-10T19:57:06Z</time>
			</trkpt>
		
			<trkpt lat="44.510660" lon="7.993210">
			 <ele>430</ele>
			<time>2017-11-10T19:59:06Z</time>
			</trkpt>
		
			<trkpt lat="44.510580" lon="7.993240">
			 <ele>432</ele>
			<time>2017-11-10T20:01:06Z</time>
			</trkpt>
		
			<trkpt lat="44.510510" lon="7.993270">
			 <ele>433</ele>
			<time>2017-11-10T20:03:06Z</time>
			</trkpt>
		
			<trkpt lat="44.510340" lon="7.993340">
			 <ele>437</ele>
			<time>2017-11-10T20:05:06Z</time>
			</trkpt>
		
			<trkpt lat="44.510180" lon="7.993410">
			 <ele>439</ele>
			<time>2017-11-10T20:07:06Z</time>
			</trkpt>
		
			<trkpt lat="44.509880" lon="7.993530">
			 <ele>442</ele>
			<time>2017-11-10T20:09:06Z</time>
			</trkpt>
		
			<trkpt lat="44.509680" lon="7.993620">
			 <ele>442</ele>
			<time>2017-11-10T20:11:06Z</time>
			</trkpt>
		
			<trkpt lat="44.509560" lon="7.993650">
			 <ele>441</ele>
			<time>2017-11-10T20:13:06Z</time>
			</trkpt>
		
			<trkpt lat="44.509460" lon="7.993670">
			 <ele>440</ele>
			<time>2017-11-10T20:15:06Z</time>
			</trkpt>
		
			<trkpt lat="44.509420" lon="7.993680">
			 <ele>440</ele>
			<time>2017-11-10T20:17:06Z</time>
			</trkpt>
		
			<trkpt lat="44.509380" lon="7.993680">
			 <ele>440</ele>
			<time>2017-11-10T20:19:06Z</time>
			</trkpt>
		
			<trkpt lat="44.509340" lon="7.993680">
			 <ele>439</ele>
			<time>2017-11-10T20:21:06Z</time>
			</trkpt>
		
			<trkpt lat="44.509280" lon="7.993690">
			 <ele>439</ele>
			<time>2017-11-10T20:23:06Z</time>
			</trkpt>
		
			<trkpt lat="44.509230" lon="7.993700">
			 <ele>439</ele>
			<time>2017-11-10T20:25:06Z</time>
			</trkpt>
		
			<trkpt lat="44.509190" lon="7.993720">
			 <ele>439</ele>
			<time>2017-11-10T20:27:06Z</time>
			</trkpt>
		
			<trkpt lat="44.509170" lon="7.993740">
			 <ele>440</ele>
			<time>2017-11-10T20:29:06Z</time>
			</trkpt>
		
			<trkpt lat="44.509150" lon="7.993750">
			 <ele>440</ele>
			<time>2017-11-10T20:31:06Z</time>
			</trkpt>
		
			<trkpt lat="44.509140" lon="7.993770">
			 <ele>440</ele>
			<time>2017-11-10T20:33:06Z</time>
			</trkpt>
		
			<trkpt lat="44.509130" lon="7.993810">
			 <ele>442</ele>
			<time>2017-11-10T20:35:06Z</time>
			</trkpt>
		
			<trkpt lat="44.509130" lon="7.993840">
			 <ele>443</ele>
			<time>2017-11-10T20:37:06Z</time>
			</trkpt>
		
			<trkpt lat="44.509130" lon="7.993860">
			 <ele>444</ele>
			<time>2017-11-10T20:39:06Z</time>
			</trkpt>
		
			<trkpt lat="44.509150" lon="7.993890">
			 <ele>445</ele>
			<time>2017-11-10T20:41:06Z</time>
			</trkpt>
		
			<trkpt lat="44.509160" lon="7.993900">
			 <ele>446</ele>
			<time>2017-11-10T20:43:06Z</time>
			</trkpt>
		
			<trkpt lat="44.509170" lon="7.993920">
			 <ele>447</ele>
			<time>2017-11-10T20:45:06Z</time>
			</trkpt>
		
			<trkpt lat="44.509200" lon="7.993930">
			 <ele>447</ele>
			<time>2017-11-10T20:47:06Z</time>
			</trkpt>
		
			<trkpt lat="44.509230" lon="7.993930">
			 <ele>447</ele>
			<time>2017-11-10T20:49:06Z</time>
			</trkpt>
		
			<trkpt lat="44.509290" lon="7.993920">
			 <ele>448</ele>
			<time>2017-11-10T20:51:06Z</time>
			</trkpt>
		
			<trkpt lat="44.509350" lon="7.993900">
			 <ele>447</ele>
			<time>2017-11-10T20:53:06Z</time>
			</trkpt>
		
			<trkpt lat="44.509390" lon="7.993890">
			 <ele>447</ele>
			<time>2017-11-10T20:55:06Z</time>
			</trkpt>
		
			<trkpt lat="44.509460" lon="7.993880">
			 <ele>448</ele>
			<time>2017-11-10T20:57:06Z</time>
			</trkpt>
		
			<trkpt lat="44.509510" lon="7.993880">
			 <ele>448</ele>
			<time>2017-11-10T20:59:06Z</time>
			</trkpt>
		
			<trkpt lat="44.509560" lon="7.993880">
			 <ele>449</ele>
			<time>2017-11-10T21:01:06Z</time>
			</trkpt>
		
			<trkpt lat="44.509710" lon="7.993890">
			 <ele>450</ele>
			<time>2017-11-10T21:03:06Z</time>
			</trkpt>
		
			<trkpt lat="44.509920" lon="7.993890">
			 <ele>452</ele>
			<time>2017-11-10T21:05:06Z</time>
			</trkpt>
		
			<trkpt lat="44.510200" lon="7.993900">
			 <ele>451</ele>
			<time>2017-11-10T21:07:06Z</time>
			</trkpt>
		
			<trkpt lat="44.510260" lon="7.993910">
			 <ele>450</ele>
			<time>2017-11-10T21:09:06Z</time>
			</trkpt>
		
			<trkpt lat="44.510320" lon="7.993920">
			 <ele>450</ele>
			<time>2017-11-10T21:11:06Z</time>
			</trkpt>
		
			<trkpt lat="44.510380" lon="7.993940">
			 <ele>450</ele>
			<time>2017-11-10T21:13:06Z</time>
			</trkpt>
		
			<trkpt lat="44.510470" lon="7.994000">
			 <ele>450</ele>
			<time>2017-11-10T21:15:06Z</time>
			</trkpt>
		
			<trkpt lat="44.510550" lon="7.994070">
			 <ele>450</ele>
			<time>2017-11-10T21:17:06Z</time>
			</trkpt>
		
			<trkpt lat="44.510580" lon="7.994110">
			 <ele>451</ele>
			<time>2017-11-10T21:19:06Z</time>
			</trkpt>
		
			<trkpt lat="44.510600" lon="7.994170">
			 <ele>451</ele>
			<time>2017-11-10T21:21:06Z</time>
			</trkpt>
		
			<trkpt lat="44.510610" lon="7.994230">
			 <ele>452</ele>
			<time>2017-11-10T21:23:06Z</time>
			</trkpt>
		
			<trkpt lat="44.510610" lon="7.994290">
			 <ele>453</ele>
			<time>2017-11-10T21:25:06Z</time>
			</trkpt>
		
			<trkpt lat="44.510610" lon="7.994360">
			 <ele>453</ele>
			<time>2017-11-10T21:27:06Z</time>
			</trkpt>
		
			<trkpt lat="44.510600" lon="7.994450">
			 <ele>455</ele>
			<time>2017-11-10T21:29:06Z</time>
			</trkpt>
		
			<trkpt lat="44.510590" lon="7.994580">
			 <ele>456</ele>
			<time>2017-11-10T21:31:06Z</time>
			</trkpt>
		
			<trkpt lat="44.510550" lon="7.994950">
			 <ele>461</ele>
			<time>2017-11-10T21:33:06Z</time>
			</trkpt>
		
			<trkpt lat="44.510480" lon="7.995470">
			 <ele>466</ele>
			<time>2017-11-10T21:35:06Z</time>
			</trkpt>
		
			<trkpt lat="44.510440" lon="7.995860">
			 <ele>469</ele>
			<time>2017-11-10T21:37:06Z</time>
			</trkpt>
		
			<trkpt lat="44.510410" lon="7.996150">
			 <ele>472</ele>
			<time>2017-11-10T21:39:06Z</time>
			</trkpt>
		
			<trkpt lat="44.510410" lon="7.996330">
			 <ele>474</ele>
			<time>2017-11-10T21:41:06Z</time>
			</trkpt>
		
			<trkpt lat="44.510410" lon="7.996500">
			 <ele>475</ele>
			<time>2017-11-10T21:43:06Z</time>
			</trkpt>
		
			<trkpt lat="44.510430" lon="7.996800">
			 <ele>477</ele>
			<time>2017-11-10T21:45:06Z</time>
			</trkpt>
		
			<trkpt lat="44.510470" lon="7.997160">
			 <ele>478</ele>
			<time>2017-11-10T21:47:06Z</time>
			</trkpt>
		
			<trkpt lat="44.510470" lon="7.997280">
			 <ele>479</ele>
			<time>2017-11-10T21:49:06Z</time>
			</trkpt>
		
			<trkpt lat="44.510470" lon="7.997350">
			 <ele>480</ele>
			<time>2017-11-10T21:51:06Z</time>
			</trkpt>
		
			<trkpt lat="44.510460" lon="7.997390">
			 <ele>480</ele>
			<time>2017-11-10T21:53:06Z</time>
			</trkpt>
		
			<trkpt lat="44.510450" lon="7.997420">
			 <ele>481</ele>
			<time>2017-11-10T21:55:06Z</time>
			</trkpt>
		
			<trkpt lat="44.510420" lon="7.997440">
			 <ele>482</ele>
			<time>2017-11-10T21:57:06Z</time>
			</trkpt>
		
			<trkpt lat="44.510390" lon="7.997450">
			 <ele>484</ele>
			<time>2017-11-10T21:59:06Z</time>
			</trkpt>
		
			<trkpt lat="44.510360" lon="7.997440">
			 <ele>485</ele>
			<time>2017-11-10T22:01:06Z</time>
			</trkpt>
		
			<trkpt lat="44.510340" lon="7.997410">
			 <ele>486</ele>
			<time>2017-11-10T22:03:06Z</time>
			</trkpt>
		
			<trkpt lat="44.510330" lon="7.997360">
			 <ele>486</ele>
			<time>2017-11-10T22:05:06Z</time>
			</trkpt>
		
			<trkpt lat="44.510320" lon="7.997280">
			 <ele>485</ele>
			<time>2017-11-10T22:07:06Z</time>
			</trkpt>
		
			<trkpt lat="44.510320" lon="7.997160">
			 <ele>484</ele>
			<time>2017-11-10T22:09:06Z</time>
			</trkpt>
		
			<trkpt lat="44.510310" lon="7.997080">
			 <ele>484</ele>
			<time>2017-11-10T22:11:06Z</time>
			</trkpt>
		
			<trkpt lat="44.510300" lon="7.996950">
			 <ele>483</ele>
			<time>2017-11-10T22:13:06Z</time>
			</trkpt>
		
			<trkpt lat="44.510270" lon="7.996770">
			 <ele>483</ele>
			<time>2017-11-10T22:15:06Z</time>
			</trkpt>
		
			<trkpt lat="44.510210" lon="7.996490">
			 <ele>482</ele>
			<time>2017-11-10T22:17:06Z</time>
			</trkpt>
		
			<trkpt lat="44.510170" lon="7.996370">
			 <ele>483</ele>
			<time>2017-11-10T22:19:06Z</time>
			</trkpt>
		
			<trkpt lat="44.510130" lon="7.996260">
			 <ele>483</ele>
			<time>2017-11-10T22:21:06Z</time>
			</trkpt>
		
			<trkpt lat="44.510090" lon="7.996190">
			 <ele>483</ele>
			<time>2017-11-10T22:23:06Z</time>
			</trkpt>
		
			<trkpt lat="44.510030" lon="7.996140">
			 <ele>485</ele>
			<time>2017-11-10T22:25:06Z</time>
			</trkpt>
		
			<trkpt lat="44.509960" lon="7.996100">
			 <ele>486</ele>
			<time>2017-11-10T22:27:06Z</time>
			</trkpt>
		
			<trkpt lat="44.509900" lon="7.996080">
			 <ele>486</ele>
			<time>2017-11-10T22:29:06Z</time>
			</trkpt>
		
			<trkpt lat="44.509750" lon="7.996040">
			 <ele>488</ele>
			<time>2017-11-10T22:31:06Z</time>
			</trkpt>
		
			<trkpt lat="44.509520" lon="7.996010">
			 <ele>490</ele>
			<time>2017-11-10T22:33:06Z</time>
			</trkpt>
		
			<trkpt lat="44.509340" lon="7.996010">
			 <ele>492</ele>
			<time>2017-11-10T22:35:06Z</time>
			</trkpt>
		
			<trkpt lat="44.509270" lon="7.996020">
			 <ele>493</ele>
			<time>2017-11-10T22:37:06Z</time>
			</trkpt>
		
			<trkpt lat="44.509250" lon="7.996020">
			 <ele>494</ele>
			<time>2017-11-10T22:39:06Z</time>
			</trkpt>
		
			<trkpt lat="44.509180" lon="7.996050">
			 <ele>495</ele>
			<time>2017-11-10T22:41:06Z</time>
			</trkpt>
		
			<trkpt lat="44.509170" lon="7.996060">
			 <ele>495</ele>
			<time>2017-11-10T22:43:06Z</time>
			</trkpt>
		
			<trkpt lat="44.509030" lon="7.996120">
			 <ele>496</ele>
			<time>2017-11-10T22:45:06Z</time>
			</trkpt>
		
			<trkpt lat="44.508840" lon="7.996200">
			 <ele>498</ele>
			<time>2017-11-10T22:47:06Z</time>
			</trkpt>
		
			<trkpt lat="44.508720" lon="7.996260">
			 <ele>499</ele>
			<time>2017-11-10T22:49:06Z</time>
			</trkpt>
		
			<trkpt lat="44.508680" lon="7.996280">
			 <ele>499</ele>
			<time>2017-11-10T22:51:06Z</time>
			</trkpt>
		
			<trkpt lat="44.508640" lon="7.996320">
			 <ele>500</ele>
			<time>2017-11-10T22:53:06Z</time>
			</trkpt>
		
			<trkpt lat="44.508630" lon="7.996350">
			 <ele>501</ele>
			<time>2017-11-10T22:55:06Z</time>
			</trkpt>
		
			<trkpt lat="44.508630" lon="7.996390">
			 <ele>501</ele>
			<time>2017-11-10T22:57:06Z</time>
			</trkpt>
		
			<trkpt lat="44.508620" lon="7.996410">
			 <ele>502</ele>
			<time>2017-11-10T22:59:06Z</time>
			</trkpt>
		
			<trkpt lat="44.508630" lon="7.996460">
			 <ele>502</ele>
			<time>2017-11-10T23:01:06Z</time>
			</trkpt>
		
			<trkpt lat="44.508640" lon="7.996480">
			 <ele>503</ele>
			<time>2017-11-10T23:03:06Z</time>
			</trkpt>
		
			<trkpt lat="44.508650" lon="7.996520">
			 <ele>503</ele>
			<time>2017-11-10T23:05:06Z</time>
			</trkpt>
		
			<trkpt lat="44.508680" lon="7.996540">
			 <ele>504</ele>
			<time>2017-11-10T23:07:06Z</time>
			</trkpt>
		
			<trkpt lat="44.508710" lon="7.996560">
			 <ele>504</ele>
			<time>2017-11-10T23:09:06Z</time>
			</trkpt>
		
			<trkpt lat="44.508970" lon="7.996650">
			 <ele>504</ele>
			<time>2017-11-10T23:11:06Z</time>
			</trkpt>
		
			<trkpt lat="44.509260" lon="7.996770">
			 <ele>504</ele>
			<time>2017-11-10T23:13:06Z</time>
			</trkpt>
		
			<trkpt lat="44.509450" lon="7.996840">
			 <ele>502</ele>
			<time>2017-11-10T23:15:06Z</time>
			</trkpt>
		
			<trkpt lat="44.509520" lon="7.996900">
			 <ele>502</ele>
			<time>2017-11-10T23:17:06Z</time>
			</trkpt>
		
			<trkpt lat="44.509590" lon="7.996990">
			 <ele>502</ele>
			<time>2017-11-10T23:19:06Z</time>
			</trkpt>
		
			<trkpt lat="44.509640" lon="7.997090">
			 <ele>503</ele>
			<time>2017-11-10T23:21:06Z</time>
			</trkpt>
		
			<trkpt lat="44.509680" lon="7.997210">
			 <ele>504</ele>
			<time>2017-11-10T23:23:06Z</time>
			</trkpt>
		
			<trkpt lat="44.509700" lon="7.997330">
			 <ele>505</ele>
			<time>2017-11-10T23:25:06Z</time>
			</trkpt>
		
			<trkpt lat="44.509720" lon="7.997470">
			 <ele>506</ele>
			<time>2017-11-10T23:27:06Z</time>
			</trkpt>
		
			<trkpt lat="44.509740" lon="7.997590">
			 <ele>506</ele>
			<time>2017-11-10T23:29:06Z</time>
			</trkpt>
		
			<trkpt lat="44.509730" lon="7.997650">
			 <ele>506</ele>
			<time>2017-11-10T23:31:06Z</time>
			</trkpt>
		
			<trkpt lat="44.509730" lon="7.997710">
			 <ele>506</ele>
			<time>2017-11-10T23:33:06Z</time>
			</trkpt>
		
			<trkpt lat="44.509700" lon="7.997750">
			 <ele>507</ele>
			<time>2017-11-10T23:35:06Z</time>
			</trkpt>
		
			<trkpt lat="44.509650" lon="7.997810">
			 <ele>508</ele>
			<time>2017-11-10T23:37:06Z</time>
			</trkpt>
		
			<trkpt lat="44.509560" lon="7.997930">
			 <ele>511</ele>
			<time>2017-11-10T23:39:06Z</time>
			</trkpt>
		
			<trkpt lat="44.509430" lon="7.998090">
			 <ele>515</ele>
			<time>2017-11-10T23:41:06Z</time>
			</trkpt>
		
			<trkpt lat="44.509240" lon="7.998380">
			 <ele>522</ele>
			<time>2017-11-10T23:43:06Z</time>
			</trkpt>
		
			<trkpt lat="44.508990" lon="7.998780">
			 <ele>529</ele>
			<time>2017-11-10T23:45:06Z</time>
			</trkpt>
		
			<trkpt lat="44.508760" lon="7.999210">
			 <ele>536</ele>
			<time>2017-11-10T23:47:06Z</time>
			</trkpt>
		
			<trkpt lat="44.508700" lon="7.999400">
			 <ele>539</ele>
			<time>2017-11-10T23:49:06Z</time>
			</trkpt>
		
			<trkpt lat="44.508660" lon="7.999520">
			 <ele>541</ele>
			<time>2017-11-10T23:51:06Z</time>
			</trkpt>
		
			<trkpt lat="44.508640" lon="7.999630">
			 <ele>543</ele>
			<time>2017-11-10T23:53:06Z</time>
			</trkpt>
		
			<trkpt lat="44.508630" lon="7.999730">
			 <ele>544</ele>
			<time>2017-11-10T23:55:06Z</time>
			</trkpt>
		
			<trkpt lat="44.508630" lon="7.999820">
			 <ele>545</ele>
			<time>2017-11-10T23:57:06Z</time>
			</trkpt>
		
			<trkpt lat="44.508640" lon="7.999980">
			 <ele>546</ele>
			<time>2017-11-10T23:59:06Z</time>
			</trkpt>
		
			<trkpt lat="44.508650" lon="8.000210">
			 <ele>549</ele>
			<time>2017-11-11T00:01:06Z</time>
			</trkpt>
		
			<trkpt lat="44.508650" lon="8.000350">
			 <ele>551</ele>
			<time>2017-11-11T00:03:06Z</time>
			</trkpt>
		
			<trkpt lat="44.508630" lon="8.000430">
			 <ele>552</ele>
			<time>2017-11-11T00:05:06Z</time>
			</trkpt>
		
			<trkpt lat="44.508600" lon="8.000520">
			 <ele>554</ele>
			<time>2017-11-11T00:07:06Z</time>
			</trkpt>
		
			<trkpt lat="44.508560" lon="8.000590">
			 <ele>555</ele>
			<time>2017-11-11T00:09:06Z</time>
			</trkpt>
		
			<trkpt lat="44.508510" lon="8.000650">
			 <ele>557</ele>
			<time>2017-11-11T00:11:06Z</time>
			</trkpt>
		
			<trkpt lat="44.508430" lon="8.000720">
			 <ele>558</ele>
			<time>2017-11-11T00:13:06Z</time>
			</trkpt>
		
			<trkpt lat="44.508370" lon="8.000750">
			 <ele>560</ele>
			<time>2017-11-11T00:15:06Z</time>
			</trkpt>
		
			<trkpt lat="44.508280" lon="8.000770">
			 <ele>561</ele>
			<time>2017-11-11T00:17:06Z</time>
			</trkpt>
		
			<trkpt lat="44.508250" lon="8.000770">
			 <ele>561</ele>
			<time>2017-11-11T00:19:06Z</time>
			</trkpt>
		
			<trkpt lat="44.508230" lon="8.000760">
			 <ele>562</ele>
			<time>2017-11-11T00:21:06Z</time>
			</trkpt>
		
			<trkpt lat="44.508210" lon="8.000760">
			 <ele>562</ele>
			<time>2017-11-11T00:23:06Z</time>
			</trkpt>
		
			<trkpt lat="44.508180" lon="8.000740">
			 <ele>562</ele>
			<time>2017-11-11T00:25:06Z</time>
			</trkpt>
		
			<trkpt lat="44.508060" lon="8.000650">
			 <ele>563</ele>
			<time>2017-11-11T00:27:06Z</time>
			</trkpt>
		
			<trkpt lat="44.507800" lon="8.000380">
			 <ele>563</ele>
			<time>2017-11-11T00:29:06Z</time>
			</trkpt>
		
			<trkpt lat="44.507690" lon="8.000280">
			 <ele>564</ele>
			<time>2017-11-11T00:31:06Z</time>
			</trkpt>
		
			<trkpt lat="44.507640" lon="8.000250">
			 <ele>564</ele>
			<time>2017-11-11T00:33:06Z</time>
			</trkpt>
		
			<trkpt lat="44.507610" lon="8.000230">
			 <ele>564</ele>
			<time>2017-11-11T00:35:06Z</time>
			</trkpt>
		
			<trkpt lat="44.507560" lon="8.000230">
			 <ele>565</ele>
			<time>2017-11-11T00:37:06Z</time>
			</trkpt>
		
			<trkpt lat="44.507510" lon="8.000220">
			 <ele>565</ele>
			<time>2017-11-11T00:39:06Z</time>
			</trkpt>
		
			<trkpt lat="44.507480" lon="8.000240">
			 <ele>566</ele>
			<time>2017-11-11T00:41:06Z</time>
			</trkpt>
		
			<trkpt lat="44.507430" lon="8.000260">
			 <ele>567</ele>
			<time>2017-11-11T00:43:06Z</time>
			</trkpt>
		
			<trkpt lat="44.507350" lon="8.000310">
			 <ele>568</ele>
			<time>2017-11-11T00:45:06Z</time>
			</trkpt>
		
			<trkpt lat="44.507070" lon="8.000550">
			 <ele>572</ele>
			<time>2017-11-11T00:47:06Z</time>
			</trkpt>
		
			<trkpt lat="44.506670" lon="8.000880">
			 <ele>579</ele>
			<time>2017-11-11T00:49:06Z</time>
			</trkpt>
		
			<trkpt lat="44.506320" lon="8.001270">
			 <ele>582</ele>
			<time>2017-11-11T00:51:06Z</time>
			</trkpt>
		
			<trkpt lat="44.505840" lon="8.001770">
			 <ele>586</ele>
			<time>2017-11-11T00:53:06Z</time>
			</trkpt>
		
			<trkpt lat="44.505550" lon="8.002120">
			 <ele>587</ele>
			<time>2017-11-11T00:55:06Z</time>
			</trkpt>
		
			<trkpt lat="44.505500" lon="8.002200">
			 <ele>588</ele>
			<time>2017-11-11T00:57:06Z</time>
			</trkpt>
		
			<trkpt lat="44.505460" lon="8.002280">
			 <ele>589</ele>
			<time>2017-11-11T00:59:06Z</time>
			</trkpt>
		
			<trkpt lat="44.505430" lon="8.002350">
			 <ele>590</ele>
			<time>2017-11-11T01:01:06Z</time>
			</trkpt>
		
			<trkpt lat="44.505400" lon="8.002430">
			 <ele>591</ele>
			<time>2017-11-11T01:03:06Z</time>
			</trkpt>
		
			<trkpt lat="44.505390" lon="8.002500">
			 <ele>592</ele>
			<time>2017-11-11T01:05:06Z</time>
			</trkpt>
		
			<trkpt lat="44.505380" lon="8.002620">
			 <ele>594</ele>
			<time>2017-11-11T01:07:06Z</time>
			</trkpt>
		
			<trkpt lat="44.505370" lon="8.002710">
			 <ele>595</ele>
			<time>2017-11-11T01:09:06Z</time>
			</trkpt>
		
			<trkpt lat="44.505360" lon="8.002780">
			 <ele>596</ele>
			<time>2017-11-11T01:11:06Z</time>
			</trkpt>
		
			<trkpt lat="44.505350" lon="8.002830">
			 <ele>596</ele>
			<time>2017-11-11T01:13:06Z</time>
			</trkpt>
		
			<trkpt lat="44.505330" lon="8.002920">
			 <ele>597</ele>
			<time>2017-11-11T01:15:06Z</time>
			</trkpt>
		
			<trkpt lat="44.505290" lon="8.003030">
			 <ele>599</ele>
			<time>2017-11-11T01:17:06Z</time>
			</trkpt>
		
			<trkpt lat="44.505150" lon="8.003350">
			 <ele>602</ele>
			<time>2017-11-11T01:19:06Z</time>
			</trkpt>
		
			<trkpt lat="44.504870" lon="8.003920">
			 <ele>604</ele>
			<time>2017-11-11T01:21:06Z</time>
			</trkpt>
		
			<trkpt lat="44.504670" lon="8.004250">
			 <ele>604</ele>
			<time>2017-11-11T01:23:06Z</time>
			</trkpt>
		
			<trkpt lat="44.504610" lon="8.004390">
			 <ele>605</ele>
			<time>2017-11-11T01:25:06Z</time>
			</trkpt>
		
			<trkpt lat="44.504580" lon="8.004470">
			 <ele>605</ele>
			<time>2017-11-11T01:27:06Z</time>
			</trkpt>
		
			<trkpt lat="44.504560" lon="8.004550">
			 <ele>606</ele>
			<time>2017-11-11T01:29:06Z</time>
			</trkpt>
		
			<trkpt lat="44.504540" lon="8.004620">
			 <ele>607</ele>
			<time>2017-11-11T01:31:06Z</time>
			</trkpt>
		
			<trkpt lat="44.504530" lon="8.004690">
			 <ele>607</ele>
			<time>2017-11-11T01:33:06Z</time>
			</trkpt>
		
			<trkpt lat="44.504530" lon="8.004760">
			 <ele>608</ele>
			<time>2017-11-11T01:35:06Z</time>
			</trkpt>
		
			<trkpt lat="44.504530" lon="8.004840">
			 <ele>609</ele>
			<time>2017-11-11T01:37:06Z</time>
			</trkpt>
		
			<trkpt lat="44.504540" lon="8.004940">
			 <ele>611</ele>
			<time>2017-11-11T01:39:06Z</time>
			</trkpt>
		
			<trkpt lat="44.504560" lon="8.005070">
			 <ele>613</ele>
			<time>2017-11-11T01:41:06Z</time>
			</trkpt>
		
			<trkpt lat="44.504570" lon="8.005170">
			 <ele>614</ele>
			<time>2017-11-11T01:43:06Z</time>
			</trkpt>
		
			<trkpt lat="44.504600" lon="8.005340">
			 <ele>617</ele>
			<time>2017-11-11T01:45:06Z</time>
			</trkpt>
		
			<trkpt lat="44.504640" lon="8.005580">
			 <ele>621</ele>
			<time>2017-11-11T01:47:06Z</time>
			</trkpt>
		
			<trkpt lat="44.504680" lon="8.005860">
			 <ele>625</ele>
			<time>2017-11-11T01:49:06Z</time>
			</trkpt>
		
			<trkpt lat="44.504690" lon="8.006010">
			 <ele>628</ele>
			<time>2017-11-11T01:51:06Z</time>
			</trkpt>
		
			<trkpt lat="44.504690" lon="8.006120">
			 <ele>630</ele>
			<time>2017-11-11T01:53:06Z</time>
			</trkpt>
		
			<trkpt lat="44.504690" lon="8.006190">
			 <ele>631</ele>
			<time>2017-11-11T01:55:06Z</time>
			</trkpt>
		
			<trkpt lat="44.504690" lon="8.006250">
			 <ele>632</ele>
			<time>2017-11-11T01:57:06Z</time>
			</trkpt>
		
			<trkpt lat="44.504680" lon="8.006310">
			 <ele>632</ele>
			<time>2017-11-11T01:59:06Z</time>
			</trkpt>
		
			<trkpt lat="44.504670" lon="8.006370">
			 <ele>633</ele>
			<time>2017-11-11T02:01:06Z</time>
			</trkpt>
		
			<trkpt lat="44.504640" lon="8.006490">
			 <ele>634</ele>
			<time>2017-11-11T02:03:06Z</time>
			</trkpt>
		
			<trkpt lat="44.504590" lon="8.006740">
			 <ele>635</ele>
			<time>2017-11-11T02:05:06Z</time>
			</trkpt>
		
			<trkpt lat="44.504540" lon="8.006960">
			 <ele>633</ele>
			<time>2017-11-11T02:07:06Z</time>
			</trkpt>
		
			<trkpt lat="44.504490" lon="8.007100">
			 <ele>631</ele>
			<time>2017-11-11T02:09:06Z</time>
			</trkpt>
		
			<trkpt lat="44.504470" lon="8.007170">
			 <ele>630</ele>
			<time>2017-11-11T02:11:06Z</time>
			</trkpt>
		
			<trkpt lat="44.504440" lon="8.007220">
			 <ele>629</ele>
			<time>2017-11-11T02:13:06Z</time>
			</trkpt>
		
			<trkpt lat="44.504410" lon="8.007250">
			 <ele>629</ele>
			<time>2017-11-11T02:15:06Z</time>
			</trkpt>
		
			<trkpt lat="44.504320" lon="8.007320">
			 <ele>627</ele>
			<time>2017-11-11T02:17:06Z</time>
			</trkpt>
		
			<trkpt lat="44.504220" lon="8.007390">
			 <ele>626</ele>
			<time>2017-11-11T02:19:06Z</time>
			</trkpt>
		
			<trkpt lat="44.504100" lon="8.007490">
			 <ele>624</ele>
			<time>2017-11-11T02:21:06Z</time>
			</trkpt>
		
			<trkpt lat="44.503930" lon="8.007670">
			 <ele>619</ele>
			<time>2017-11-11T02:23:06Z</time>
			</trkpt>
		
			<trkpt lat="44.503760" lon="8.007880">
			 <ele>615</ele>
			<time>2017-11-11T02:25:06Z</time>
			</trkpt>
		
			<trkpt lat="44.503530" lon="8.008150">
			 <ele>613</ele>
			<time>2017-11-11T02:27:06Z</time>
			</trkpt>
		
			<trkpt lat="44.503210" lon="8.008500">
			 <ele>612</ele>
			<time>2017-11-11T02:29:06Z</time>
			</trkpt>
		
			<trkpt lat="44.503000" lon="8.008720">
			 <ele>610</ele>
			<time>2017-11-11T02:31:06Z</time>
			</trkpt>
		
			<trkpt lat="44.503000" lon="8.008720">
			 <ele>610</ele>
			<time>2017-11-11T02:33:06Z</time>
			</trkpt>
		
			<trkpt lat="44.502840" lon="8.008360">
			 <ele>611</ele>
			<time>2017-11-11T02:35:06Z</time>
			</trkpt>
		
			<trkpt lat="44.502840" lon="8.008360">
			 <ele>611</ele>
			<time>2017-11-11T02:37:06Z</time>
			</trkpt>
		
			<trkpt lat="44.502310" lon="8.008810">
			 <ele>611</ele>
			<time>2017-11-11T02:39:06Z</time>
			</trkpt>
		
			<trkpt lat="44.502040" lon="8.009040">
			 <ele>613</ele>
			<time>2017-11-11T02:41:06Z</time>
			</trkpt>
		
			<trkpt lat="44.501920" lon="8.009130">
			 <ele>615</ele>
			<time>2017-11-11T02:43:06Z</time>
			</trkpt>
		
			<trkpt lat="44.501840" lon="8.009200">
			 <ele>616</ele>
			<time>2017-11-11T02:45:06Z</time>
			</trkpt>
		
			<trkpt lat="44.501740" lon="8.009260">
			 <ele>617</ele>
			<time>2017-11-11T02:47:06Z</time>
			</trkpt>
		
			<trkpt lat="44.501610" lon="8.009310">
			 <ele>618</ele>
			<time>2017-11-11T02:49:06Z</time>
			</trkpt>
		
			<trkpt lat="44.501470" lon="8.009360">
			 <ele>618</ele>
			<time>2017-11-11T02:51:06Z</time>
			</trkpt>
		
			<trkpt lat="44.501300" lon="8.009410">
			 <ele>619</ele>
			<time>2017-11-11T02:53:06Z</time>
			</trkpt>
		
			<trkpt lat="44.501220" lon="8.009440">
			 <ele>619</ele>
			<time>2017-11-11T02:55:06Z</time>
			</trkpt>
		
			<trkpt lat="44.501150" lon="8.009500">
			 <ele>620</ele>
			<time>2017-11-11T02:57:06Z</time>
			</trkpt>
		
			<trkpt lat="44.501060" lon="8.009570">
			 <ele>622</ele>
			<time>2017-11-11T02:59:06Z</time>
			</trkpt>
		
			<trkpt lat="44.500930" lon="8.009700">
			 <ele>625</ele>
			<time>2017-11-11T03:01:06Z</time>
			</trkpt>
		
			<trkpt lat="44.500740" lon="8.009870">
			 <ele>629</ele>
			<time>2017-11-11T03:03:06Z</time>
			</trkpt>
		
			<trkpt lat="44.500610" lon="8.009950">
			 <ele>630</ele>
			<time>2017-11-11T03:05:06Z</time>
			</trkpt>
		
			<trkpt lat="44.500440" lon="8.010060">
			 <ele>632</ele>
			<time>2017-11-11T03:07:06Z</time>
			</trkpt>
		
			<trkpt lat="44.500200" lon="8.010140">
			 <ele>634</ele>
			<time>2017-11-11T03:09:06Z</time>
			</trkpt>
		
			<trkpt lat="44.499960" lon="8.010150">
			 <ele>635</ele>
			<time>2017-11-11T03:11:06Z</time>
			</trkpt>
		
			<trkpt lat="44.499850" lon="8.010150">
			 <ele>636</ele>
			<time>2017-11-11T03:13:06Z</time>
			</trkpt>
		
			<trkpt lat="44.499760" lon="8.010130">
			 <ele>637</ele>
			<time>2017-11-11T03:15:06Z</time>
			</trkpt>
		
			<trkpt lat="44.499670" lon="8.010100">
			 <ele>638</ele>
			<time>2017-11-11T03:17:06Z</time>
			</trkpt>
		
			<trkpt lat="44.499600" lon="8.010060">
			 <ele>639</ele>
			<time>2017-11-11T03:19:06Z</time>
			</trkpt>
		
			<trkpt lat="44.499550" lon="8.010020">
			 <ele>639</ele>
			<time>2017-11-11T03:21:06Z</time>
			</trkpt>
		
			<trkpt lat="44.499410" lon="8.009810">
			 <ele>640</ele>
			<time>2017-11-11T03:23:06Z</time>
			</trkpt>
		
			<trkpt lat="44.499020" lon="8.009220">
			 <ele>641</ele>
			<time>2017-11-11T03:25:06Z</time>
			</trkpt>
		
			<trkpt lat="44.498670" lon="8.008690">
			 <ele>642</ele>
			<time>2017-11-11T03:27:06Z</time>
			</trkpt>
		
			<trkpt lat="44.498560" lon="8.008530">
			 <ele>643</ele>
			<time>2017-11-11T03:29:06Z</time>
			</trkpt>
		
			<trkpt lat="44.498440" lon="8.008390">
			 <ele>643</ele>
			<time>2017-11-11T03:31:06Z</time>
			</trkpt>
		
			<trkpt lat="44.498360" lon="8.008320">
			 <ele>644</ele>
			<time>2017-11-11T03:33:06Z</time>
			</trkpt>
		
			<trkpt lat="44.498290" lon="8.008270">
			 <ele>644</ele>
			<time>2017-11-11T03:35:06Z</time>
			</trkpt>
		
			<trkpt lat="44.498240" lon="8.008240">
			 <ele>644</ele>
			<time>2017-11-11T03:37:06Z</time>
			</trkpt>
		
			<trkpt lat="44.498190" lon="8.008220">
			 <ele>644</ele>
			<time>2017-11-11T03:39:06Z</time>
			</trkpt>
		
			<trkpt lat="44.498140" lon="8.008220">
			 <ele>644</ele>
			<time>2017-11-11T03:41:06Z</time>
			</trkpt>
		
			<trkpt lat="44.498070" lon="8.008210">
			 <ele>644</ele>
			<time>2017-11-11T03:43:06Z</time>
			</trkpt>
		
			<trkpt lat="44.497970" lon="8.008210">
			 <ele>645</ele>
			<time>2017-11-11T03:45:06Z</time>
			</trkpt>
		
			<trkpt lat="44.497490" lon="8.008230">
			 <ele>647</ele>
			<time>2017-11-11T03:47:06Z</time>
			</trkpt>
		
			<trkpt lat="44.496920" lon="8.008260">
			 <ele>650</ele>
			<time>2017-11-11T03:49:06Z</time>
			</trkpt>
		
			<trkpt lat="44.496420" lon="8.008290">
			 <ele>653</ele>
			<time>2017-11-11T03:51:06Z</time>
			</trkpt>
		
			<trkpt lat="44.495920" lon="8.008300">
			 <ele>656</ele>
			<time>2017-11-11T03:53:06Z</time>
			</trkpt>
		
			<trkpt lat="44.495490" lon="8.008320">
			 <ele>659</ele>
			<time>2017-11-11T03:55:06Z</time>
			</trkpt>
		
			<trkpt lat="44.495370" lon="8.008330">
			 <ele>659</ele>
			<time>2017-11-11T03:57:06Z</time>
			</trkpt>
		
			<trkpt lat="44.495250" lon="8.008370">
			 <ele>660</ele>
			<time>2017-11-11T03:59:06Z</time>
			</trkpt>
		
			<trkpt lat="44.495100" lon="8.008420">
			 <ele>661</ele>
			<time>2017-11-11T04:01:06Z</time>
			</trkpt>
		
			<trkpt lat="44.494930" lon="8.008520">
			 <ele>663</ele>
			<time>2017-11-11T04:03:06Z</time>
			</trkpt>
		
			<trkpt lat="44.494760" lon="8.008640">
			 <ele>664</ele>
			<time>2017-11-11T04:05:06Z</time>
			</trkpt>
		
			<trkpt lat="44.494520" lon="8.008890">
			 <ele>666</ele>
			<time>2017-11-11T04:07:06Z</time>
			</trkpt>
		
			<trkpt lat="44.494260" lon="8.009160">
			 <ele>670</ele>
			<time>2017-11-11T04:09:06Z</time>
			</trkpt>
		
			<trkpt lat="44.493870" lon="8.009560">
			 <ele>672</ele>
			<time>2017-11-11T04:11:06Z</time>
			</trkpt>
		
			<trkpt lat="44.493600" lon="8.009820">
			 <ele>675</ele>
			<time>2017-11-11T04:13:06Z</time>
			</trkpt>
		
			<trkpt lat="44.493210" lon="8.010210">
			 <ele>680</ele>
			<time>2017-11-11T04:15:06Z</time>
			</trkpt>
		
			<trkpt lat="44.492820" lon="8.010620">
			 <ele>684</ele>
			<time>2017-11-11T04:17:06Z</time>
			</trkpt>
		
			<trkpt lat="44.492470" lon="8.011000">
			 <ele>688</ele>
			<time>2017-11-11T04:19:06Z</time>
			</trkpt>
		
			<trkpt lat="44.492250" lon="8.011180">
			 <ele>687</ele>
			<time>2017-11-11T04:21:06Z</time>
			</trkpt>
		
			<trkpt lat="44.492070" lon="8.011320">
			 <ele>687</ele>
			<time>2017-11-11T04:23:06Z</time>
			</trkpt>
		
			<trkpt lat="44.491660" lon="8.011770">
			 <ele>690</ele>
			<time>2017-11-11T04:25:06Z</time>
			</trkpt>
		
			<trkpt lat="44.491440" lon="8.012020">
			 <ele>691</ele>
			<time>2017-11-11T04:27:06Z</time>
			</trkpt>
		
			<trkpt lat="44.491290" lon="8.012160">
			 <ele>691</ele>
			<time>2017-11-11T04:29:06Z</time>
			</trkpt>
		
			<trkpt lat="44.491160" lon="8.012270">
			 <ele>692</ele>
			<time>2017-11-11T04:31:06Z</time>
			</trkpt>
		
			<trkpt lat="44.491060" lon="8.012340">
			 <ele>692</ele>
			<time>2017-11-11T04:33:06Z</time>
			</trkpt>
		
			<trkpt lat="44.490970" lon="8.012380">
			 <ele>692</ele>
			<time>2017-11-11T04:35:06Z</time>
			</trkpt>
		
			<trkpt lat="44.490840" lon="8.012440">
			 <ele>692</ele>
			<time>2017-11-11T04:37:06Z</time>
			</trkpt>
		
			<trkpt lat="44.490680" lon="8.012490">
			 <ele>693</ele>
			<time>2017-11-11T04:39:06Z</time>
			</trkpt>
		
			<trkpt lat="44.490270" lon="8.012640">
			 <ele>694</ele>
			<time>2017-11-11T04:41:06Z</time>
			</trkpt>
		
			<trkpt lat="44.489940" lon="8.012750">
			 <ele>696</ele>
			<time>2017-11-11T04:43:06Z</time>
			</trkpt>
		
			<trkpt lat="44.489640" lon="8.012820">
			 <ele>696</ele>
			<time>2017-11-11T04:45:06Z</time>
			</trkpt>
		
			<trkpt lat="44.489460" lon="8.012860">
			 <ele>697</ele>
			<time>2017-11-11T04:47:06Z</time>
			</trkpt>
		
			<trkpt lat="44.489260" lon="8.012890">
			 <ele>696</ele>
			<time>2017-11-11T04:49:06Z</time>
			</trkpt>
		
			<trkpt lat="44.488980" lon="8.012930">
			 <ele>694</ele>
			<time>2017-11-11T04:51:06Z</time>
			</trkpt>
		
			<trkpt lat="44.488750" lon="8.012980">
			 <ele>692</ele>
			<time>2017-11-11T04:53:06Z</time>
			</trkpt>
		
			<trkpt lat="44.488650" lon="8.013030">
			 <ele>692</ele>
			<time>2017-11-11T04:55:06Z</time>
			</trkpt>
		
			<trkpt lat="44.488610" lon="8.013070">
			 <ele>692</ele>
			<time>2017-11-11T04:57:06Z</time>
			</trkpt>
		
			<trkpt lat="44.488580" lon="8.013120">
			 <ele>692</ele>
			<time>2017-11-11T04:59:06Z</time>
			</trkpt>
		
			<trkpt lat="44.488540" lon="8.013180">
			 <ele>693</ele>
			<time>2017-11-11T05:01:06Z</time>
			</trkpt>
		
			<trkpt lat="44.488490" lon="8.013280">
			 <ele>694</ele>
			<time>2017-11-11T05:03:06Z</time>
			</trkpt>
		
			<trkpt lat="44.488460" lon="8.013390">
			 <ele>694</ele>
			<time>2017-11-11T05:05:06Z</time>
			</trkpt>
		
			<trkpt lat="44.488440" lon="8.013520">
			 <ele>695</ele>
			<time>2017-11-11T05:07:06Z</time>
			</trkpt>
		
			<trkpt lat="44.488430" lon="8.013730">
			 <ele>695</ele>
			<time>2017-11-11T05:09:06Z</time>
			</trkpt>
		
			<trkpt lat="44.488450" lon="8.014160">
			 <ele>698</ele>
			<time>2017-11-11T05:11:06Z</time>
			</trkpt>
		
			<trkpt lat="44.488450" lon="8.014640">
			 <ele>695</ele>
			<time>2017-11-11T05:13:06Z</time>
			</trkpt>
		
			<trkpt lat="44.488440" lon="8.014830">
			 <ele>694</ele>
			<time>2017-11-11T05:15:06Z</time>
			</trkpt>
		
			<trkpt lat="44.488400" lon="8.014990">
			 <ele>693</ele>
			<time>2017-11-11T05:17:06Z</time>
			</trkpt>
		
			<trkpt lat="44.488350" lon="8.015090">
			 <ele>690</ele>
			<time>2017-11-11T05:19:06Z</time>
			</trkpt>
		
			<trkpt lat="44.488310" lon="8.015170">
			 <ele>689</ele>
			<time>2017-11-11T05:21:06Z</time>
			</trkpt>
		
			<trkpt lat="44.488170" lon="8.015330">
			 <ele>684</ele>
			<time>2017-11-11T05:23:06Z</time>
			</trkpt>
		
			<trkpt lat="44.487950" lon="8.015540">
			 <ele>680</ele>
			<time>2017-11-11T05:25:06Z</time>
			</trkpt>
		
			<trkpt lat="44.487570" lon="8.015970">
			 <ele>677</ele>
			<time>2017-11-11T05:27:06Z</time>
			</trkpt>
		
			<trkpt lat="44.487390" lon="8.016270">
			 <ele>674</ele>
			<time>2017-11-11T05:29:06Z</time>
			</trkpt>
		
			<trkpt lat="44.487350" lon="8.016320">
			 <ele>674</ele>
			<time>2017-11-11T05:31:06Z</time>
			</trkpt>
		
			<trkpt lat="44.487280" lon="8.016390">
			 <ele>674</ele>
			<time>2017-11-11T05:33:06Z</time>
			</trkpt>
		
			<trkpt lat="44.487160" lon="8.016480">
			 <ele>674</ele>
			<time>2017-11-11T05:35:06Z</time>
			</trkpt>
		
			<trkpt lat="44.487140" lon="8.016500">
			 <ele>674</ele>
			<time>2017-11-11T05:37:06Z</time>
			</trkpt>
		
			<trkpt lat="44.487000" lon="8.016600">
			 <ele>675</ele>
			<time>2017-11-11T05:39:06Z</time>
			</trkpt>
		
			<trkpt lat="44.486760" lon="8.016720">
			 <ele>677</ele>
			<time>2017-11-11T05:41:06Z</time>
			</trkpt>
		
			<trkpt lat="44.486300" lon="8.016930">
			 <ele>675</ele>
			<time>2017-11-11T05:43:06Z</time>
			</trkpt>
		
			<trkpt lat="44.485550" lon="8.017260">
			 <ele>676</ele>
			<time>2017-11-11T05:45:06Z</time>
			</trkpt>
		
			<trkpt lat="44.485220" lon="8.017430">
			 <ele>679</ele>
			<time>2017-11-11T05:47:06Z</time>
			</trkpt>
		
			<trkpt lat="44.484770" lon="8.017600">
			 <ele>679</ele>
			<time>2017-11-11T05:49:06Z</time>
			</trkpt>
		
			<trkpt lat="44.484540" lon="8.017650">
			 <ele>679</ele>
			<time>2017-11-11T05:51:06Z</time>
			</trkpt>
		
			<trkpt lat="44.484220" lon="8.017730">
			 <ele>679</ele>
			<time>2017-11-11T05:53:06Z</time>
			</trkpt>
		
			<trkpt lat="44.483650" lon="8.017820">
			 <ele>683</ele>
			<time>2017-11-11T05:55:06Z</time>
			</trkpt>
		
			<trkpt lat="44.483360" lon="8.017890">
			 <ele>686</ele>
			<time>2017-11-11T05:57:06Z</time>
			</trkpt>
		
			<trkpt lat="44.483000" lon="8.018010">
			 <ele>688</ele>
			<time>2017-11-11T05:59:06Z</time>
			</trkpt>
		
			<trkpt lat="44.482650" lon="8.018160">
			 <ele>690</ele>
			<time>2017-11-11T06:01:06Z</time>
			</trkpt>
		
			<trkpt lat="44.482020" lon="8.018430">
			 <ele>692</ele>
			<time>2017-11-11T06:03:06Z</time>
			</trkpt>
		
			<trkpt lat="44.481620" lon="8.018630">
			 <ele>692</ele>
			<time>2017-11-11T06:05:06Z</time>
			</trkpt>
		
			<trkpt lat="44.481430" lon="8.018780">
			 <ele>691</ele>
			<time>2017-11-11T06:07:06Z</time>
			</trkpt>
		
			<trkpt lat="44.481220" lon="8.019020">
			 <ele>692</ele>
			<time>2017-11-11T06:09:06Z</time>
			</trkpt>
		
			<trkpt lat="44.480940" lon="8.019400">
			 <ele>690</ele>
			<time>2017-11-11T06:11:06Z</time>
			</trkpt>
		
			<trkpt lat="44.480690" lon="8.019810">
			 <ele>691</ele>
			<time>2017-11-11T06:13:06Z</time>
			</trkpt>
		
			<trkpt lat="44.480610" lon="8.019930">
			 <ele>692</ele>
			<time>2017-11-11T06:15:06Z</time>
			</trkpt>
		
			<trkpt lat="44.480520" lon="8.020040">
			 <ele>693</ele>
			<time>2017-11-11T06:17:06Z</time>
			</trkpt>
		
			<trkpt lat="44.480390" lon="8.020170">
			 <ele>694</ele>
			<time>2017-11-11T06:19:06Z</time>
			</trkpt>
		
			<trkpt lat="44.480260" lon="8.020280">
			 <ele>696</ele>
			<time>2017-11-11T06:21:06Z</time>
			</trkpt>
		
			<trkpt lat="44.480170" lon="8.020340">
			 <ele>697</ele>
			<time>2017-11-11T06:23:06Z</time>
			</trkpt>
		
			<trkpt lat="44.480110" lon="8.020370">
			 <ele>699</ele>
			<time>2017-11-11T06:25:06Z</time>
			</trkpt>
		
			<trkpt lat="44.479970" lon="8.020450">
			 <ele>701</ele>
			<time>2017-11-11T06:27:06Z</time>
			</trkpt>
		
			<trkpt lat="44.479810" lon="8.020520">
			 <ele>701</ele>
			<time>2017-11-11T06:29:06Z</time>
			</trkpt>
		
			<trkpt lat="44.479720" lon="8.020570">
			 <ele>701</ele>
			<time>2017-11-11T06:31:06Z</time>
			</trkpt>
		
			<trkpt lat="44.479590" lon="8.020650">
			 <ele>701</ele>
			<time>2017-11-11T06:33:06Z</time>
			</trkpt>
		
			<trkpt lat="44.479520" lon="8.020700">
			 <ele>702</ele>
			<time>2017-11-11T06:35:06Z</time>
			</trkpt>
		
			<trkpt lat="44.479440" lon="8.020720">
			 <ele>702</ele>
			<time>2017-11-11T06:37:06Z</time>
			</trkpt>
		
			<trkpt lat="44.479320" lon="8.020750">
			 <ele>703</ele>
			<time>2017-11-11T06:39:06Z</time>
			</trkpt>
		
			<trkpt lat="44.479130" lon="8.020780">
			 <ele>704</ele>
			<time>2017-11-11T06:41:06Z</time>
			</trkpt>
		
			<trkpt lat="44.478920" lon="8.020820">
			 <ele>705</ele>
			<time>2017-11-11T06:43:06Z</time>
			</trkpt>
		
			<trkpt lat="44.478710" lon="8.020860">
			 <ele>706</ele>
			<time>2017-11-11T06:45:06Z</time>
			</trkpt>
		
			<trkpt lat="44.478700" lon="8.020870">
			 <ele>706</ele>
			<time>2017-11-11T06:47:06Z</time>
			</trkpt>
		
			<trkpt lat="44.478420" lon="8.020900">
			 <ele>707</ele>
			<time>2017-11-11T06:49:06Z</time>
			</trkpt>
		
			<trkpt lat="44.478330" lon="8.020910">
			 <ele>707</ele>
			<time>2017-11-11T06:51:06Z</time>
			</trkpt>
		
			<trkpt lat="44.478080" lon="8.020950">
			 <ele>707</ele>
			<time>2017-11-11T06:53:06Z</time>
			</trkpt>
		
			<trkpt lat="44.477850" lon="8.020960">
			 <ele>708</ele>
			<time>2017-11-11T06:55:06Z</time>
			</trkpt>
		
			<trkpt lat="44.477600" lon="8.020960">
			 <ele>709</ele>
			<time>2017-11-11T06:57:06Z</time>
			</trkpt>
		
			<trkpt lat="44.477230" lon="8.020910">
			 <ele>711</ele>
			<time>2017-11-11T06:59:06Z</time>
			</trkpt>
		
			<trkpt lat="44.476930" lon="8.020830">
			 <ele>714</ele>
			<time>2017-11-11T07:01:06Z</time>
			</trkpt>
		
			<trkpt lat="44.476790" lon="8.020810">
			 <ele>714</ele>
			<time>2017-11-11T07:03:06Z</time>
			</trkpt>
		
			<trkpt lat="44.476640" lon="8.020780">
			 <ele>715</ele>
			<time>2017-11-11T07:05:06Z</time>
			</trkpt>
		
			<trkpt lat="44.476560" lon="8.020780">
			 <ele>716</ele>
			<time>2017-11-11T07:07:06Z</time>
			</trkpt>
		
			<trkpt lat="44.476500" lon="8.020800">
			 <ele>717</ele>
			<time>2017-11-11T07:09:06Z</time>
			</trkpt>
		
			<trkpt lat="44.476460" lon="8.020800">
			 <ele>717</ele>
			<time>2017-11-11T07:11:06Z</time>
			</trkpt>
		
			<trkpt lat="44.476410" lon="8.020820">
			 <ele>718</ele>
			<time>2017-11-11T07:13:06Z</time>
			</trkpt>
		
			<trkpt lat="44.476350" lon="8.020820">
			 <ele>719</ele>
			<time>2017-11-11T07:15:06Z</time>
			</trkpt>
		
			<trkpt lat="44.476310" lon="8.020820">
			 <ele>719</ele>
			<time>2017-11-11T07:17:06Z</time>
			</trkpt>
		
			<trkpt lat="44.476260" lon="8.020810">
			 <ele>720</ele>
			<time>2017-11-11T07:19:06Z</time>
			</trkpt>
		
			<trkpt lat="44.476220" lon="8.020800">
			 <ele>720</ele>
			<time>2017-11-11T07:21:06Z</time>
			</trkpt>
		
			<trkpt lat="44.476090" lon="8.020750">
			 <ele>721</ele>
			<time>2017-11-11T07:23:06Z</time>
			</trkpt>
		
			<trkpt lat="44.476050" lon="8.020720">
			 <ele>721</ele>
			<time>2017-11-11T07:25:06Z</time>
			</trkpt>
		
			<trkpt lat="44.476050" lon="8.020720">
			 <ele>721</ele>
			<time>2017-11-11T07:27:06Z</time>
			</trkpt>
		
			<trkpt lat="44.476010" lon="8.020750">
			 <ele>722</ele>
			<time>2017-11-11T07:29:06Z</time>
			</trkpt>
		
			<trkpt lat="44.475890" lon="8.020790">
			 <ele>724</ele>
			<time>2017-11-11T07:31:06Z</time>
			</trkpt>
		
			<trkpt lat="44.475780" lon="8.020830">
			 <ele>725</ele>
			<time>2017-11-11T07:33:06Z</time>
			</trkpt>
		
			<trkpt lat="44.475720" lon="8.020850">
			 <ele>726</ele>
			<time>2017-11-11T07:35:06Z</time>
			</trkpt>
		
			<trkpt lat="44.475690" lon="8.020870">
			 <ele>726</ele>
			<time>2017-11-11T07:37:06Z</time>
			</trkpt>
		
			<trkpt lat="44.475650" lon="8.020900">
			 <ele>726</ele>
			<time>2017-11-11T07:39:06Z</time>
			</trkpt>
		
			<trkpt lat="44.475600" lon="8.020930">
			 <ele>726</ele>
			<time>2017-11-11T07:41:06Z</time>
			</trkpt>
		
			<trkpt lat="44.475530" lon="8.020990">
			 <ele>727</ele>
			<time>2017-11-11T07:43:06Z</time>
			</trkpt>
		
			<trkpt lat="44.475430" lon="8.021100">
			 <ele>727</ele>
			<time>2017-11-11T07:45:06Z</time>
			</trkpt>
		
			<trkpt lat="44.475320" lon="8.021200">
			 <ele>729</ele>
			<time>2017-11-11T07:47:06Z</time>
			</trkpt>
		
			<trkpt lat="44.475300" lon="8.021220">
			 <ele>729</ele>
			<time>2017-11-11T07:49:06Z</time>
			</trkpt>
		
			<trkpt lat="44.475270" lon="8.021230">
			 <ele>729</ele>
			<time>2017-11-11T07:51:06Z</time>
			</trkpt>
		
			<trkpt lat="44.475210" lon="8.021250">
			 <ele>730</ele>
			<time>2017-11-11T07:53:06Z</time>
			</trkpt>
		
			<trkpt lat="44.475110" lon="8.021280">
			 <ele>732</ele>
			<time>2017-11-11T07:55:06Z</time>
			</trkpt>
		
			<trkpt lat="44.474850" lon="8.021330">
			 <ele>735</ele>
			<time>2017-11-11T07:57:06Z</time>
			</trkpt>
		
			<trkpt lat="44.474850" lon="8.021330">
			 <ele>735</ele>
			<time>2017-11-11T07:59:06Z</time>
			</trkpt>
		
			<trkpt lat="44.474850" lon="8.021390">
			 <ele>735</ele>
			<time>2017-11-11T08:01:06Z</time>
			</trkpt>
		
			<trkpt lat="44.474850" lon="8.021410">
			 <ele>735</ele>
			<time>2017-11-11T08:03:06Z</time>
			</trkpt>
		
				</trkseg>
			   </trk>
			 </gpx>
	